createdAt,value
2023-03-05T00:01:35.794Z,16.65
2023-03-05T00:04:05.914Z,18.00
2023-03-05T00:06:34.481Z,14.93
2023-03-05T00:09:02.331Z,18.23
2023-03-05T00:11:31.855Z,18.98
2023-03-05T00:14:01.544Z,13.38
2023-03-05T00:16:30.041Z,21.17
2023-03-05T00:18:59.573Z,19.92
2023-03-05T00:21:40.444Z,17.63
2023-03-05T00:24:18.570Z,15.77
2023-03-05T00:26:46.559Z,14.10
2023-03-05T00:29:22.000Z,17.20
2023-03-05T00:31:49.863Z,19.00
2023-03-05T00:34:19.273Z,15.05
2023-03-05T00:36:50.866Z,17.95
2023-03-05T00:39:21.811Z,16.88
2023-03-05T00:41:49.161Z,18.77
2023-03-05T00:44:16.381Z,15.85
2023-03-05T00:46:43.669Z,12.48
2023-03-05T00:49:10.704Z,15.43
2023-03-05T00:51:38.024Z,15.70
2023-03-05T00:54:05.955Z,15.55
2023-03-05T00:56:34.175Z,16.40
2023-03-05T00:59:01.196Z,18.55
2023-03-05T01:01:29.276Z,17.23
2023-03-05T01:03:57.560Z,18.17
2023-03-05T01:06:24.909Z,15.98
2023-03-05T01:08:52.654Z,20.52
2023-03-05T01:11:19.862Z,17.45
2023-03-05T01:13:46.889Z,17.00
2023-03-05T01:16:14.863Z,16.33
2023-03-05T01:18:42.366Z,21.75
2023-03-05T01:21:10.606Z,15.82
2023-03-05T01:23:38.163Z,13.88
2023-03-05T01:26:06.579Z,12.63
2023-03-05T01:28:33.738Z,16.05
2023-03-05T01:31:01.240Z,11.57
2023-03-05T01:33:28.264Z,16.08
2023-03-05T01:35:55.551Z,13.43
2023-03-05T01:38:22.564Z,15.45
2023-03-05T01:40:49.917Z,10.98
2023-03-05T01:43:28.941Z,9.95
2023-03-05T01:46:29.914Z,13.68
2023-03-05T01:49:08.210Z,12.20
2023-03-05T01:51:49.318Z,15.43
2023-03-05T01:54:21.233Z,13.55
2023-03-05T01:56:52.929Z,18.02
2023-03-05T01:59:23.539Z,10.55
2023-03-05T02:01:56.009Z,12.48
2023-03-05T02:04:34.699Z,16.95
2023-03-05T02:07:03.324Z,13.68
2023-03-05T02:09:30.337Z,12.70
2023-03-05T02:11:58.688Z,16.13
2023-03-05T02:14:27.056Z,16.58
2023-03-05T02:16:54.348Z,17.77
2023-03-05T02:19:21.861Z,13.27
2023-03-05T02:21:50.689Z,13.95
2023-03-05T02:24:36.948Z,13.50
2023-03-05T02:27:06.431Z,12.27
2023-03-05T02:29:38.995Z,13.93
2023-03-05T02:32:06.840Z,9.35
2023-03-05T02:34:34.115Z,11.35
2023-03-05T02:37:04.796Z,10.48
2023-03-05T02:39:32.377Z,10.02
2023-03-05T02:41:59.843Z,9.90
2023-03-05T02:44:27.137Z,8.27
2023-03-05T02:46:54.433Z,11.57
2023-03-05T02:49:21.655Z,9.57
2023-03-05T02:51:48.837Z,11.93
2023-03-05T02:54:15.918Z,12.93
2023-03-05T02:56:43.642Z,13.50
2023-03-05T02:59:10.701Z,8.27
2023-03-05T03:01:38.001Z,9.10
2023-03-05T03:04:05.033Z,7.93
2023-03-05T03:06:32.174Z,11.32
2023-03-05T03:08:59.287Z,8.93
2023-03-05T03:11:26.557Z,11.77
2023-03-05T03:13:53.597Z,7.63
2023-03-05T03:16:21.151Z,8.10
2023-03-05T03:18:49.006Z,9.48
2023-03-05T03:21:25.760Z,11.02
2023-03-05T03:23:53.618Z,8.75
2023-03-05T03:26:21.051Z,9.13
2023-03-05T03:28:49.504Z,8.82
2023-03-05T03:31:16.943Z,9.68
2023-03-05T03:33:44.632Z,9.02
2023-03-05T03:36:12.418Z,10.00
2023-03-05T03:38:39.588Z,10.52
2023-03-05T03:41:08.113Z,18.13
2023-03-05T03:43:38.463Z,11.05
2023-03-05T03:46:07.689Z,8.32
2023-03-05T03:48:36.040Z,7.68
2023-03-05T03:51:07.713Z,9.02
2023-03-05T03:53:34.993Z,7.07
2023-03-05T03:56:03.505Z,8.27
2023-03-05T03:58:30.664Z,8.00
2023-03-05T04:00:57.918Z,6.72
2023-03-05T04:03:24.949Z,7.15
2023-03-05T04:05:52.207Z,6.47
2023-03-05T04:08:19.244Z,7.85
2023-03-05T04:10:46.589Z,6.78
2023-03-05T04:13:13.620Z,7.45
2023-03-05T04:15:41.456Z,15.38
2023-03-05T04:18:09.983Z,7.53
2023-03-05T04:20:37.148Z,6.32
2023-03-05T04:23:04.277Z,9.15
2023-03-05T04:25:31.448Z,11.82
2023-03-05T04:27:58.700Z,8.05
2023-03-05T04:30:28.440Z,9.35
2023-03-05T04:32:55.366Z,9.15
2023-03-05T04:35:23.116Z,4.88
2023-03-05T04:37:50.411Z,7.38
2023-03-05T04:40:19.816Z,8.25
2023-03-05T04:42:46.826Z,8.45
2023-03-05T04:45:14.375Z,5.78
2023-03-05T04:47:41.362Z,8.63
2023-03-05T04:50:11.103Z,9.15
2023-03-05T04:52:44.696Z,8.65
2023-03-05T04:55:14.381Z,7.93
2023-03-05T04:57:42.395Z,7.13
2023-03-05T05:00:15.277Z,9.93
2023-03-05T05:02:44.665Z,7.63
2023-03-05T05:05:19.842Z,9.93
2023-03-05T05:10:16.138Z,15.38
2023-03-05T05:12:43.432Z,9.63
2023-03-05T05:15:13.367Z,10.70
2023-03-05T05:17:40.641Z,8.50
2023-03-05T05:20:11.473Z,6.97
2023-03-05T05:22:38.736Z,9.95
2023-03-05T05:25:06.794Z,7.72
2023-03-05T05:27:34.156Z,6.88
2023-03-05T05:30:01.573Z,6.82
2023-03-05T05:32:28.551Z,9.43
2023-03-05T05:34:58.134Z,6.47
2023-03-05T05:37:26.944Z,11.70
2023-03-05T05:39:54.288Z,5.25
2023-03-05T05:42:24.702Z,7.03
2023-03-05T05:44:52.913Z,9.68
2023-03-05T05:47:20.042Z,4.70
2023-03-05T05:49:47.815Z,7.90
2023-03-05T05:52:15.067Z,5.85
2023-03-05T05:54:42.392Z,6.85
2023-03-05T05:57:09.565Z,5.32
2023-03-05T05:59:37.525Z,6.50
2023-03-05T06:02:05.549Z,10.48
2023-03-05T06:04:33.049Z,8.18
2023-03-05T06:07:00.774Z,10.57
2023-03-05T06:09:28.022Z,8.35
2023-03-05T06:11:55.258Z,7.65
2023-03-05T06:14:22.603Z,6.70
2023-03-05T06:16:49.687Z,7.13
2023-03-05T06:19:17.530Z,8.40
2023-03-05T06:21:44.844Z,9.43
2023-03-05T06:24:13.021Z,4.38
2023-03-05T06:26:40.101Z,7.68
2023-03-05T06:29:07.453Z,5.50
2023-03-05T06:31:36.924Z,3.38
2023-03-05T06:34:05.136Z,3.38
2023-03-05T06:36:32.067Z,5.28
2023-03-05T06:38:59.927Z,3.33
2023-03-05T06:41:30.818Z,3.22
2023-03-05T06:44:02.404Z,3.63
2023-03-05T06:46:37.476Z,3.92
2023-03-05T06:49:05.293Z,4.35
2023-03-05T06:51:38.141Z,3.88
2023-03-05T06:54:09.671Z,5.75
2023-03-05T06:56:39.020Z,2.80
2023-03-05T06:59:08.049Z,1.90
2023-03-05T07:01:35.368Z,2.38
2023-03-05T07:04:03.370Z,1.33
2023-03-05T07:06:34.642Z,2.30
2023-03-05T07:09:04.179Z,1.75
2023-03-05T07:11:31.681Z,1.38
2023-03-05T07:13:59.339Z,1.20
2023-03-05T07:16:30.700Z,3.35
2023-03-05T07:19:02.925Z,2.17
2023-03-05T07:21:34.046Z,1.48
2023-03-05T07:24:03.597Z,1.50
2023-03-05T07:26:33.605Z,3.72
2023-03-05T07:29:02.340Z,1.92
2023-03-05T07:31:33.160Z,1.65
2023-03-05T07:34:03.717Z,1.40
2023-03-05T07:36:31.335Z,4.13
2023-03-05T07:38:58.594Z,2.63
2023-03-05T07:41:25.770Z,1.13
2023-03-05T07:43:55.132Z,1.65
2023-03-05T07:46:32.883Z,1.48
2023-03-05T07:49:00.572Z,1.58
2023-03-05T07:51:28.843Z,1.00
2023-03-05T07:53:58.710Z,1.67
2023-03-05T07:56:38.072Z,1.75
2023-03-05T07:59:10.832Z,2.05
2023-03-05T08:01:39.098Z,0.80
2023-03-05T08:04:08.466Z,2.58
2023-03-05T08:06:35.862Z,0.82
2023-03-05T08:09:03.152Z,1.13
2023-03-05T08:11:36.342Z,4.13
2023-03-05T08:14:04.787Z,3.08
2023-03-05T08:16:32.542Z,4.25
2023-03-05T08:19:00.381Z,1.40
2023-03-05T08:21:33.676Z,5.30
2023-03-05T08:24:05.773Z,1.45
2023-03-05T08:26:37.812Z,0.82
2023-03-05T08:29:07.497Z,0.88
2023-03-05T08:31:35.788Z,0.40
2023-03-05T08:34:05.278Z,0.63
2023-03-05T08:36:33.366Z,0.60
2023-03-05T08:39:01.038Z,0.55
2023-03-05T08:41:28.453Z,0.50
2023-03-05T08:43:56.201Z,0.47
2023-03-05T08:46:23.743Z,0.50
2023-03-05T08:48:51.159Z,1.17
2023-03-05T08:51:25.822Z,0.40
2023-03-05T08:56:22.890Z,2.40
2023-03-05T08:58:51.585Z,0.65
2023-03-05T09:01:18.893Z,4.03
2023-03-05T09:03:46.325Z,5.00
2023-03-05T09:06:13.430Z,3.50
2023-03-05T09:08:41.440Z,2.88
2023-03-05T09:11:12.098Z,2.60
2023-03-05T09:13:41.378Z,1.17
2023-03-05T09:16:13.713Z,2.65
2023-03-05T09:18:42.224Z,0.82
2023-03-05T09:21:16.364Z,4.47
2023-03-05T09:23:44.930Z,1.40
2023-03-05T09:26:15.785Z,5.28
2023-03-05T09:28:43.170Z,2.55
2023-03-05T09:31:10.728Z,2.53
2023-03-05T09:33:39.269Z,6.43
2023-03-05T09:36:22.641Z,0.95
2023-03-05T09:38:50.227Z,1.85
2023-03-05T09:41:51.342Z,2.25
2023-03-05T09:44:30.876Z,0.90
2023-03-05T09:47:18.926Z,2.38
2023-03-05T09:50:32.542Z,0.70
2023-03-05T09:53:46.672Z,0.55
2023-03-05T09:56:21.983Z,0.95
2023-03-05T10:01:34.699Z,1.10
2023-03-05T10:04:21.325Z,2.45
2023-03-05T10:07:13.624Z,2.15
2023-03-05T10:09:57.433Z,0.90
2023-03-05T10:12:43.533Z,2.50
2023-03-05T10:15:52.624Z,1.20
2023-03-05T10:19:07.519Z,2.42
2023-03-05T10:22:06.954Z,0.90
2023-03-05T10:24:55.375Z,1.10
2023-03-05T10:27:49.121Z,5.15
2023-03-05T10:30:33.689Z,2.22
2023-03-05T10:33:48.357Z,2.47
2023-03-05T10:37:04.994Z,1.20
2023-03-05T10:40:19.623Z,2.30
2023-03-05T10:43:31.485Z,0.90
2023-03-05T10:46:01.746Z,3.22
2023-03-05T10:48:45.099Z,1.83
2023-03-05T10:52:05.655Z,2.20
2023-03-05T10:54:38.675Z,2.10
2023-03-05T10:57:26.743Z,5.25
2023-03-05T11:00:22.131Z,1.70
2023-03-05T11:03:03.372Z,1.40
2023-03-05T11:05:47.092Z,5.35
2023-03-05T11:08:20.249Z,4.68
2023-03-05T11:10:47.467Z,2.20
2023-03-05T11:13:29.233Z,1.60
2023-03-05T11:16:07.516Z,8.05
2023-03-05T11:18:34.795Z,14.27
2023-03-05T11:21:27.517Z,4.15
2023-03-05T11:24:16.053Z,2.70
2023-03-05T11:26:54.403Z,4.25
2023-03-05T11:29:26.481Z,1.60
2023-03-05T11:31:54.778Z,1.23
2023-03-05T11:34:39.759Z,2.97
2023-03-05T11:37:08.341Z,2.58
2023-03-05T11:39:40.316Z,2.30
2023-03-05T11:42:17.484Z,1.38
2023-03-05T11:44:52.755Z,2.20
2023-03-05T11:47:49.787Z,1.52
2023-03-05T11:50:16.666Z,1.35
2023-03-05T11:52:53.296Z,1.25
2023-03-05T11:55:28.575Z,2.50
2023-03-05T11:58:43.986Z,1.65
2023-03-05T12:01:20.109Z,2.42
2023-03-05T12:03:48.936Z,1.48
2023-03-05T12:06:26.581Z,1.38
2023-03-05T12:09:02.776Z,1.50
2023-03-05T12:11:33.682Z,0.98
2023-03-05T12:14:23.373Z,1.58
2023-03-05T12:17:05.724Z,3.80
2023-03-05T12:20:06.544Z,1.52
2023-03-05T12:22:42.182Z,3.10
2023-03-05T12:25:34.312Z,3.83
2023-03-05T12:28:02.528Z,1.45
2023-03-05T12:30:36.074Z,2.67
2023-03-05T12:33:05.980Z,1.10
2023-03-05T12:35:41.192Z,1.42
2023-03-05T12:44:05.204Z,1.27
2023-03-05T12:46:36.121Z,8.60
2023-03-05T12:49:23.015Z,1.38
2023-03-05T12:51:59.233Z,0.93
2023-03-05T12:54:33.862Z,2.35
2023-03-05T12:57:20.922Z,1.92
2023-03-05T13:00:05.150Z,0.93
2023-03-05T13:02:45.982Z,1.20
2023-03-05T13:05:28.217Z,1.83
2023-03-05T13:08:36.241Z,1.05
2023-03-05T13:11:08.888Z,1.42
2023-03-05T13:13:43.200Z,1.30
2023-03-05T13:16:25.136Z,1.27
2023-03-05T13:18:55.080Z,1.20
2023-03-05T13:21:29.067Z,0.82
2023-03-05T13:24:04.019Z,1.35
2023-03-05T13:26:39.785Z,2.10
2023-03-05T13:29:31.534Z,1.17
2023-03-05T13:32:19.582Z,1.25
2023-03-05T13:34:48.151Z,0.90
2023-03-05T13:37:24.356Z,1.30
2023-03-05T13:40:14.744Z,0.80
2023-03-05T13:42:41.809Z,2.13
2023-03-05T13:45:26.332Z,4.15
2023-03-05T13:47:56.525Z,1.10
2023-03-05T13:50:32.019Z,1.95
2023-03-05T13:53:23.931Z,2.17
2023-03-05T13:55:56.720Z,1.13
2023-03-05T13:58:53.874Z,1.20
2023-03-05T14:01:29.095Z,1.27
2023-03-05T14:04:04.411Z,2.17
2023-03-05T14:06:37.264Z,2.05
2023-03-05T14:09:20.863Z,1.52
2023-03-05T14:12:03.317Z,1.40
2023-03-05T14:14:36.817Z,1.42
2023-03-05T14:17:24.022Z,3.97
2023-03-05T14:19:52.197Z,2.45
2023-03-05T14:22:36.166Z,1.25
2023-03-05T14:25:06.560Z,5.65
2023-03-05T14:27:36.893Z,1.60
2023-03-05T14:30:06.469Z,2.25
2023-03-05T14:32:37.326Z,1.05
2023-03-05T14:35:06.822Z,3.08
2023-03-05T14:37:45.052Z,3.53
2023-03-05T14:40:12.426Z,7.65
2023-03-05T14:43:01.923Z,2.22
2023-03-05T14:45:43.767Z,3.53
2023-03-05T14:48:15.557Z,1.70
2023-03-05T14:50:56.635Z,1.05
2023-03-05T14:53:29.751Z,2.28
2023-03-05T14:55:57.508Z,2.50
2023-03-05T14:58:32.548Z,3.33
2023-03-05T15:01:00.211Z,3.70
2023-03-05T15:03:28.204Z,1.60
2023-03-05T15:05:59.118Z,2.85
2023-03-05T15:08:32.592Z,2.75
2023-03-05T15:11:01.975Z,2.60
2023-03-05T15:13:30.196Z,2.28
2023-03-05T15:15:58.943Z,1.20
2023-03-05T15:18:27.118Z,4.32
2023-03-05T15:20:55.105Z,4.50
2023-03-05T15:23:23.027Z,2.45
2023-03-05T15:25:51.271Z,2.60
2023-03-05T15:28:18.684Z,4.35
2023-03-05T15:30:47.936Z,5.82
2023-03-05T15:33:17.816Z,1.65
2023-03-05T15:35:46.109Z,1.27
2023-03-05T15:38:13.545Z,1.85
2023-03-05T15:40:40.580Z,5.45
2023-03-05T15:43:07.830Z,2.25
2023-03-05T15:45:34.770Z,2.97
2023-03-05T15:48:02.097Z,4.07
2023-03-05T15:50:29.158Z,2.92
2023-03-05T15:52:57.841Z,2.85
2023-03-05T15:55:24.862Z,1.98
2023-03-05T15:57:54.430Z,2.45
2023-03-05T16:00:30.652Z,2.72
2023-03-05T16:02:58.139Z,4.38
2023-03-05T16:05:25.777Z,1.42
2023-03-05T16:07:54.926Z,1.90
2023-03-05T16:10:26.867Z,2.97
2023-03-05T16:13:06.901Z,1.98
2023-03-05T16:15:35.368Z,3.90
2023-03-05T16:18:08.331Z,2.33
2023-03-05T16:20:36.416Z,3.88
2023-03-05T16:23:05.342Z,2.38
2023-03-05T16:25:33.001Z,2.08
2023-03-05T16:28:00.251Z,1.40
2023-03-05T16:30:27.323Z,2.70
2023-03-05T16:32:54.656Z,5.55
2023-03-05T16:35:21.915Z,4.43
2023-03-05T16:37:49.579Z,3.28
2023-03-05T16:40:17.842Z,3.42
2023-03-05T16:42:45.254Z,1.83
2023-03-05T16:45:12.583Z,1.98
2023-03-05T16:47:40.744Z,2.50
2023-03-05T16:50:10.514Z,3.42
2023-03-05T16:52:38.388Z,5.00
2023-03-05T16:55:06.251Z,2.58
2023-03-05T16:57:33.535Z,3.05
2023-03-05T17:00:02.560Z,1.40
2023-03-05T17:02:29.880Z,3.85
2023-03-05T17:04:57.959Z,1.98
2023-03-05T17:07:26.611Z,3.90
2023-03-05T17:09:54.455Z,1.80
2023-03-05T17:12:23.014Z,2.97
2023-03-05T17:14:50.019Z,2.33
2023-03-05T17:17:18.674Z,2.60
2023-03-05T17:19:45.881Z,3.30
2023-03-05T17:22:13.177Z,2.88
2023-03-05T17:24:42.877Z,3.17
2023-03-05T17:27:10.812Z,2.67
2023-03-05T17:29:37.891Z,2.25
2023-03-05T17:32:06.112Z,1.63
2023-03-05T17:34:36.634Z,1.50
2023-03-05T17:37:05.880Z,1.77
2023-03-05T17:39:33.691Z,2.28
2023-03-05T17:42:01.704Z,11.75
2023-03-05T17:44:28.805Z,1.70
2023-03-05T17:46:56.821Z,2.53
2023-03-05T17:49:23.805Z,2.17
2023-03-05T17:51:51.158Z,4.65
2023-03-05T17:54:18.205Z,7.22
2023-03-05T17:56:45.515Z,5.32
2023-03-05T17:59:12.540Z,3.90
2023-03-05T18:01:40.044Z,3.40
2023-03-05T18:04:07.460Z,2.30
2023-03-05T18:06:34.737Z,3.42
2023-03-05T18:09:01.664Z,1.67
2023-03-05T18:11:30.661Z,2.05
2023-03-05T18:13:57.999Z,2.40
2023-03-05T18:16:25.535Z,4.43
2023-03-05T18:18:53.185Z,3.42
2023-03-05T18:21:23.878Z,3.05
2023-03-05T18:23:51.852Z,5.90
2023-03-05T18:26:19.171Z,5.70
2023-03-05T18:28:46.095Z,3.75
2023-03-05T18:31:13.392Z,3.20
2023-03-05T18:33:41.147Z,2.67
2023-03-05T18:36:10.796Z,4.07
2023-03-05T18:38:38.568Z,3.95
2023-03-05T18:41:06.555Z,2.85
2023-03-05T18:43:33.990Z,2.92
2023-03-05T18:46:04.980Z,3.72
2023-03-05T18:48:32.323Z,3.00
2023-03-05T18:51:01.842Z,2.55
2023-03-05T18:53:29.356Z,3.72
2023-03-05T18:55:56.542Z,4.00
2023-03-05T18:58:25.935Z,17.58
2023-03-05T19:00:53.352Z,7.22
2023-03-05T19:03:22.576Z,4.00
2023-03-05T19:05:51.333Z,6.75
2023-03-05T19:08:19.236Z,3.95
2023-03-05T19:10:47.078Z,4.32
2023-03-05T19:13:40.151Z,4.90
2023-03-05T19:16:13.851Z,4.80
2023-03-05T19:19:25.520Z,4.20
2023-03-05T19:21:56.569Z,5.05
2023-03-05T19:24:26.364Z,5.50
2023-03-05T19:26:56.099Z,4.32
2023-03-05T19:29:24.897Z,4.88
2023-03-05T19:31:54.472Z,11.85
2023-03-05T19:34:21.712Z,4.32
2023-03-05T19:36:49.027Z,4.50
2023-03-05T19:39:16.020Z,6.85
2023-03-05T19:41:43.460Z,4.22
2023-03-05T19:44:10.429Z,3.70
2023-03-05T19:46:37.832Z,4.07
2023-03-05T19:49:04.880Z,2.88
2023-03-05T19:51:32.198Z,5.68
2023-03-05T19:53:59.638Z,4.93
2023-03-05T19:56:27.155Z,5.97
2023-03-05T19:58:54.237Z,5.05
2023-03-05T20:01:26.611Z,4.78
2023-03-05T20:03:57.206Z,3.42
2023-03-05T20:06:45.010Z,3.50
2023-03-05T20:09:13.914Z,4.15
2023-03-05T20:11:41.515Z,3.88
2023-03-05T20:14:10.142Z,4.05
2023-03-05T20:16:41.016Z,6.63
2023-03-05T20:19:11.408Z,3.40
2023-03-05T20:21:41.621Z,4.63
2023-03-05T20:24:16.903Z,4.05
2023-03-05T20:26:47.381Z,4.35
2023-03-05T20:29:18.057Z,3.92
2023-03-05T20:31:46.487Z,3.25
2023-03-05T20:34:18.942Z,7.03
2023-03-05T20:36:46.730Z,3.58
2023-03-05T20:39:13.846Z,10.80
2023-03-05T20:41:41.263Z,4.05
2023-03-05T20:44:11.326Z,2.88
2023-03-05T20:47:46.156Z,2.85
2023-03-05T20:50:15.007Z,8.80
2023-03-05T20:52:42.385Z,2.33
2023-03-05T20:55:11.477Z,3.10
2023-03-05T20:57:39.250Z,3.03
2023-03-05T21:00:07.542Z,4.25
2023-03-05T21:02:34.850Z,4.45
2023-03-05T21:05:02.004Z,2.92
2023-03-05T21:07:29.841Z,4.60
2023-03-05T21:09:57.072Z,9.65
2023-03-05T21:12:24.552Z,4.43
2023-03-05T21:14:51.607Z,3.08
2023-03-05T21:17:19.691Z,4.00
2023-03-05T21:19:47.348Z,3.55
2023-03-05T21:22:14.660Z,2.85
2023-03-05T21:25:29.010Z,4.40
2023-03-05T21:27:58.122Z,4.88
2023-03-05T21:30:45.072Z,2.50
2023-03-05T21:33:17.701Z,2.83
2023-03-05T21:35:45.327Z,3.78
2023-03-05T21:38:14.261Z,3.78
2023-03-05T21:40:45.672Z,4.13
2023-03-05T21:43:14.277Z,2.63
2023-03-05T21:45:42.637Z,4.22
2023-03-05T21:48:09.876Z,5.38
2023-03-05T21:50:41.577Z,4.07
2023-03-05T21:53:09.600Z,4.78
2023-03-05T21:56:25.525Z,4.97
2023-03-05T21:58:54.039Z,8.38
2023-03-05T22:01:21.896Z,3.08
2023-03-05T22:03:50.548Z,3.50
2023-03-05T22:06:19.562Z,3.88
2023-03-05T22:08:47.522Z,3.05
2023-03-05T22:11:17.727Z,4.68
2023-03-05T22:13:45.107Z,4.70
2023-03-05T22:16:20.045Z,2.80
2023-03-05T22:18:47.367Z,3.53
2023-03-05T22:21:26.499Z,4.60
2023-03-05T22:23:58.232Z,5.05
2023-03-05T22:26:35.443Z,2.90
2023-03-05T22:29:03.841Z,2.80
2023-03-05T22:31:31.356Z,3.10
2023-03-05T22:33:58.658Z,3.70
2023-03-05T22:36:25.929Z,5.78
2023-03-05T22:38:53.396Z,4.30
2023-03-05T22:41:21.850Z,2.83
2023-03-05T22:43:50.687Z,2.88
2023-03-05T22:46:20.749Z,3.63
2023-03-05T22:48:49.086Z,5.30
2023-03-05T22:51:17.676Z,3.05
2023-03-05T22:53:46.827Z,2.78
2023-03-05T22:56:18.990Z,2.63
2023-03-05T22:58:47.154Z,2.88
2023-03-05T23:01:23.805Z,3.17
2023-03-05T23:04:49.413Z,3.75
2023-03-05T23:07:32.914Z,4.90
2023-03-05T23:10:13.807Z,4.53
2023-03-05T23:12:46.312Z,4.63
2023-03-05T23:15:18.566Z,7.65
2023-03-05T23:17:45.790Z,4.20
2023-03-05T23:20:16.935Z,3.40
2023-03-05T23:22:45.798Z,6.95
2023-03-05T23:25:16.445Z,4.80
2023-03-05T23:27:44.410Z,4.35
2023-03-05T23:30:26.450Z,4.68
2023-03-05T23:33:02.550Z,3.97
2023-03-05T23:35:40.398Z,4.63
2023-03-05T23:38:12.935Z,5.78
2023-03-05T23:40:44.566Z,3.70
2023-03-05T23:43:13.028Z,5.85
2023-03-05T23:45:48.128Z,5.90
2023-03-05T23:48:17.838Z,8.27
2023-03-05T23:50:48.860Z,4.90
2023-03-05T23:53:31.283Z,3.70
2023-03-05T23:55:59.033Z,6.32
2023-03-05T23:58:26.351Z,5.55
